Time;durP1;ratioP1;P1;durP2;ratioP2;P2;SDS_P1;SDS_P2;PMS_P1;PMS_P2;Temp;Humidity;BMP_temperature;BMP_pressure;BME280_temperature;BME280_humidity;BME280_pressure;Samples;Min_cycle;Max_cycle;Signal;HPM_P1;HPM_P2
2023/07/16 00:00:36;;;;;;;;;;;;;;;;;;5092452;28;19914;-59
2023/07/16 00:03:02;;;;;;;;;;;;;;;;;;5106810;28;19916;-59
2023/07/16 00:05:28;;;;;;;;;;;;;;;;;;5101718;28;20016;-59
2023/07/16 00:07:54;;;;;;;;;;;;;;;;;;5108038;28;19920;-58
2023/07/16 00:10:19;;;;;;;;;;;;;;;;;;5109900;28;20381;-58
2023/07/16 00:12:45;;;;;;;;;;;;;;;;;;5097037;28;19912;-59
2023/07/16 00:15:11;;;;;;;;;;;;;;;;;;5102545;28;20302;-59
2023/07/16 00:17:37;;;;;;;;;;;;;;;;;;5111547;28;19962;-58
2023/07/16 00:20:04;;;;;;;;;;;;;;;;;;5097737;28;19967;-59
2023/07/16 00:22:30;;;;;;;;;;;;;;;;;;5096891;28;19991;-58
2023/07/16 00:24:56;;;;;;;;;;;;;;;;;;5111242;28;19915;-58
2023/07/16 00:27:22;;;;;;;;;;;;;;;;;;5107993;28;19912;-58
2023/07/16 00:29:48;;;;;;;;;;;;;;;;;;5093747;28;20283;-58
2023/07/16 00:32:14;;;;;;;;;;;;;;;;;;5111926;28;19912;-59
2023/07/16 00:34:40;;;;;;;;;;;;;;;;;;5112587;28;20424;-59
2023/07/16 00:37:06;;;;;;;;;;;;;;;;;;5096445;28;19912;-59
2023/07/16 00:39:32;;;;;;;;;;;;;;;;;;5090576;28;20276;-58
2023/07/16 00:41:57;;;;;;;;;;;;;;;;;;5093106;28;19970;-58
2023/07/16 00:44:23;;;;;;;;;;;;;;;;;;5096553;28;20135;-57
2023/07/16 00:46:49;;;;;;;;;;;;;;;;;;5097161;28;20295;-58
2023/07/16 00:49:15;;;;;;;;;;;;;;;;;;5109042;28;19908;-59
2023/07/16 00:51:41;;;;;;;;;;;;;;;;;;5101296;28;20053;-58
2023/07/16 00:54:07;;;;;;;;;;;;;;;;;;5096401;28;19908;-58
2023/07/16 00:56:33;;;;;;;;;;;;;;;;;;5105875;28;19919;-58
2023/07/16 00:58:59;;;;;;;;;;;;;;;;;;5113312;28;19948;-59
2023/07/16 01:01:25;;;;;;;;;;;;;;;;;;5095898;28;19912;-58
2023/07/16 01:03:51;;;;;;;;;;;;;;;;;;5095754;28;20428;-58
2023/07/16 01:06:16;;;;;;;;;;;;;;;;;;5094626;28;19959;-58
2023/07/16 01:08:42;;;;;;;;;;;;;;;;;;5094890;28;20265;-62
2023/07/16 01:11:08;;;;;;;;;;;;;;;;;;5094637;28;19912;-62
2023/07/16 01:13:34;;;;;;;;;;;;;;;;;;5095987;28;19917;-62
2023/07/16 01:16:00;;;;;;;;;;;;;;;;;;5101968;28;19962;-63
2023/07/16 01:18:26;;;;;;;;;;;;;;;;;;5096185;28;19955;-63
2023/07/16 01:20:52;;;;;;;;;;;;;;;;;;5099081;28;20021;-62
2023/07/16 01:23:18;;;;;;;;;;;;;;;;;;5112543;28;19911;-63
2023/07/16 01:25:44;;;;;;;;;;;;;;;;;;5100521;28;20007;-62
2023/07/16 01:28:10;;;;;;;;;;;;;;;;;;5098935;28;19912;-62
2023/07/16 01:30:35;;;;;;;;;;;;;;;;;;5112445;28;19912;-62
2023/07/16 01:33:01;;;;;;;;;;;;;;;;;;5113814;28;19947;-61
2023/07/16 01:35:27;;;;;;;;;;;;;;;;;;5103287;28;20387;-62
2023/07/16 01:37:53;;;;;;;;;;;;;;;;;;5101678;28;19958;-62
2023/07/16 01:40:19;;;;;;;;;;;;;;;;;;5101663;28;19926;-62
2023/07/16 01:42:45;;;;;;;;;;;;;;;;;;5094241;28;20356;-61
2023/07/16 01:45:11;;;;;;;;;;;;;;;;;;5095380;28;19992;-62
2023/07/16 01:47:37;;;;;;;;;;;;;;;;;;5095164;28;20263;-62
2023/07/16 01:50:03;;;;;;;;;;;;;;;;;;5094698;28;20388;-61
2023/07/16 01:52:29;;;;;;;;;;;;;;;;;;5095544;28;19908;-62
2023/07/16 01:54:55;;;;;;;;;;;;;;;;;;5098371;28;20379;-62
2023/07/16 01:57:20;;;;;;;;;;;;;;;;;;5104325;28;19962;-61
2023/07/16 01:59:46;;;;;;;;;;;;;;;;;;5094662;28;19912;-61
2023/07/16 02:02:12;;;;;;;;;;;;;;;;;;5095162;28;20371;-62
2023/07/16 02:04:38;;;;;;;;;;;;;;;;;;5094518;28;19965;-62
2023/07/16 02:07:04;;;;;;;;;;;;;;;;;;5094987;28;20550;-61
2023/07/16 02:09:30;;;;;;;;;;;;;;;;;;5094918;28;19908;-62
2023/07/16 02:11:56;;;;;;;;;;;;;;;;;;5094827;28;20007;-62
2023/07/16 02:14:22;;;;;;;;;;;;;;;;;;5094088;28;19947;-62
2023/07/16 02:16:48;;;;;;;;;;;;;;;;;;5094041;28;19918;-61
2023/07/16 02:19:14;;;;;;;;;;;;;;;;;;5094602;28;20083;-63
2023/07/16 02:21:39;;;;;;;;;;;;;;;;;;5094441;28;20015;-62
2023/07/16 02:24:05;;;;;;;;;;;;;;;;;;5094677;28;20429;-61
2023/07/16 02:26:31;;;;;;;;;;;;;;;;;;5094677;28;19908;-62
2023/07/16 02:28:59;;;;;;;;;;;;;;;;;;5094633;28;19908;-62
2023/07/16 02:31:24;;;;;;;;;;;;;;;;;;5094847;28;19916;-62
2023/07/16 02:33:50;;;;;;;;;;;;;;;;;;5106063;28;19930;-62
2023/07/16 02:36:16;;;;;;;;;;;;;;;;;;5111115;28;20014;-63
2023/07/16 02:38:42;;;;;;;;;;;;;;;;;;5102499;28;20369;-61
2023/07/16 02:41:08;;;;;;;;;;;;;;;;;;5107285;28;19928;-62
2023/07/16 02:43:34;;;;;;;;;;;;;;;;;;5108342;28;20298;-62
2023/07/16 02:46:00;;;;;;;;;;;;;;;;;;5103005;28;19970;-62
2023/07/16 02:48:26;;;;;;;;;;;;;;;;;;5102561;28;19947;-62
2023/07/16 02:50:52;;;;;;;;;;;;;;;;;;5113797;28;20364;-61
2023/07/16 02:53:17;;;;;;;;;;;;;;;;;;5094156;28;19908;-61
2023/07/16 02:55:43;;;;;;;;;;;;;;;;;;5103637;28;20302;-62
2023/07/16 02:58:09;;;;;;;;;;;;;;;;;;5109097;28;19937;-62
2023/07/16 03:00:35;;;;;;;;;;;;;;;;;;5095576;28;19955;-62
2023/07/16 03:03:01;;;;;;;;;;;;;;;;;;5093099;28;21229;-61
2023/07/16 03:05:27;;;;;;;;;;;;;;;;;;5093706;28;19919;-62
2023/07/16 03:07:53;;;;;;;;;;;;;;;;;;5094033;28;20656;-62
2023/07/16 03:10:19;;;;;;;;;;;;;;;;;;5093422;28;19951;-62
2023/07/16 03:12:45;;;;;;;;;;;;;;;;;;5093635;28;19962;-62
2023/07/16 03:15:10;;;;;;;;;;;;;;;;;;5093396;28;20439;-61
2023/07/16 03:17:36;;;;;;;;;;;;;;;;;;5108320;28;19924;-62
2023/07/16 03:20:04;;;;;;;;;;;;;;;;;;5093455;28;19926;-62
2023/07/16 03:22:30;;;;;;;;;;;;;;;;;;5094294;28;19952;-62
2023/07/16 03:24:56;;;;;;;;;;;;;;;;;;5093366;28;19951;-61
2023/07/16 03:27:21;;;;;;;;;;;;;;;;;;5093202;28;20002;-62
2023/07/16 03:29:47;;;;;;;;;;;;;;;;;;5092035;28;19955;-62
2023/07/16 03:32:13;;;;;;;;;;;;;;;;;;5092570;28;19952;-62
2023/07/16 03:34:39;;;;;;;;;;;;;;;;;;5092071;28;20462;-61
2023/07/16 03:37:05;;;;;;;;;;;;;;;;;;5112240;28;19986;-62
2023/07/16 03:39:31;;;;;;;;;;;;;;;;;;5109362;28;19920;-61
2023/07/16 03:41:57;;;;;;;;;;;;;;;;;;5112460;28;19908;-61
2023/07/16 03:44:23;;;;;;;;;;;;;;;;;;5101258;28;20065;-62
2023/07/16 03:46:48;;;;;;;;;;;;;;;;;;5105139;28;19912;-62
2023/07/16 03:49:14;;;;;;;;;;;;;;;;;;5096977;28;19948;-62
2023/07/16 03:51:40;;;;;;;;;;;;;;;;;;5093823;28;20375;-61
2023/07/16 03:54:06;;;;;;;;;;;;;;;;;;5092252;28;19940;-61
2023/07/16 03:56:32;;;;;;;;;;;;;;;;;;5092274;28;19912;-62
2023/07/16 03:58:58;;;;;;;;;;;;;;;;;;5098109;28;19938;-62
2023/07/16 04:01:24;;;;;;;;;;;;;;;;;;5110988;28;19930;-62
2023/07/16 04:03:50;;;;;;;;;;;;;;;;;;5103604;28;19961;-62
2023/07/16 04:06:16;;;;;;;;;;;;;;;;;;5099567;28;19950;-61
2023/07/16 04:08:42;;;;;;;;;;;;;;;;;;5108894;28;19988;-62
2023/07/16 04:11:08;;;;;;;;;;;;;;;;;;5106087;28;19919;-61
2023/07/16 04:13:34;;;;;;;;;;;;;;;;;;5105266;28;19915;-62
2023/07/16 04:16:00;;;;;;;;;;;;;;;;;;5111826;28;19951;-62
2023/07/16 04:18:26;;;;;;;;;;;;;;;;;;5105115;28;19920;-62
2023/07/16 04:20:52;;;;;;;;;;;;;;;;;;5091945;28;20335;-61
2023/07/16 04:23:18;;;;;;;;;;;;;;;;;;5091153;28;20023;-60
2023/07/16 04:25:44;;;;;;;;;;;;;;;;;;5106812;28;19951;-62
2023/07/16 04:28:10;;;;;;;;;;;;;;;;;;5109954;28;19912;-61
2023/07/16 04:30:37;;;;;;;;;;;;;;;;;;5102246;28;20046;-60
2023/07/16 04:33:02;;;;;;;;;;;;;;;;;;5107582;28;19908;-60
2023/07/16 04:35:28;;;;;;;;;;;;;;;;;;5091208;28;19966;-61
2023/07/16 04:37:54;;;;;;;;;;;;;;;;;;5091588;28;19916;-61
2023/07/16 04:40:20;;;;;;;;;;;;;;;;;;5090707;28;20348;-61
2023/07/16 04:42:46;;;;;;;;;;;;;;;;;;5094112;28;19966;-61
2023/07/16 04:45:12;;;;;;;;;;;;;;;;;;5094202;28;20275;-61
2023/07/16 04:47:38;;;;;;;;;;;;;;;;;;5106732;28;19918;-61
2023/07/16 04:50:04;;;;;;;;;;;;;;;;;;5091397;28;19919;-61
2023/07/16 04:52:30;;;;;;;;;;;;;;;;;;5091569;28;19987;-61
2023/07/16 04:54:55;;;;;;;;;;;;;;;;;;5092128;28;19918;-61
2023/07/16 04:57:21;;;;;;;;;;;;;;;;;;5092682;28;19912;-62
2023/07/16 04:59:47;;;;;;;;;;;;;;;;;;5093183;28;20434;-60
2023/07/16 05:02:15;;;;;;;;;;;;;;;;;;5110865;28;19908;-61
2023/07/16 05:04:42;;;;;;;;;;;;;;;;;;5102796;28;20348;-62
2023/07/16 05:07:08;;;;;;;;;;;;;;;;;;5091456;28;20291;-60
2023/07/16 05:09:34;;;;;;;;;;;;;;;;;;5091260;28;19915;-63
2023/07/16 05:12:00;;;;;;;;;;;;;;;;;;5090194;28;19999;-61
2023/07/16 05:14:25;;;;;;;;;;;;;;;;;;5091066;28;19955;-61
2023/07/16 05:16:51;;;;;;;;;;;;;;;;;;5095424;28;19955;-60
2023/07/16 05:19:17;;;;;;;;;;;;;;;;;;5095738;28;19965;-61
2023/07/16 05:21:43;;;;;;;;;;;;;;;;;;5106695;28;20368;-61
2023/07/16 05:24:09;;;;;;;;;;;;;;;;;;5106078;28;19954;-60
2023/07/16 05:26:35;;;;;;;;;;;;;;;;;;5105101;28;20268;-60
2023/07/16 05:29:02;;;;;;;;;;;;;;;;;;5106058;28;19912;-60
2023/07/16 05:31:28;;;;;;;;;;;;;;;;;;5098882;28;19911;-61
2023/07/16 05:33:53;;;;;;;;;;;;;;;;;;5108043;28;20410;-61
2023/07/16 05:36:19;;;;;;;;;;;;;;;;;;5094963;28;19994;-60
2023/07/16 05:38:45;;;;;;;;;;;;;;;;;;5103012;28;19994;-61
2023/07/16 05:41:11;;;;;;;;;;;;;;;;;;5098811;28;19923;-60
2023/07/16 05:43:37;;;;;;;;;;;;;;;;;;5096960;28;20260;-61
2023/07/16 05:46:05;;;;;;;;;;;;;;;;;;5101390;28;19943;-61
2023/07/16 05:48:30;;;;;;;;;;;;;;;;;;5092533;28;19912;-62
2023/07/16 05:50:56;;;;;;;;;;;;;;;;;;5105140;28;19986;-61
2023/07/16 05:53:22;;;;;;;;;;;;;;;;;;5109211;28;19999;-61
2023/07/16 05:55:49;;;;;;;;;;;;;;;;;;5096464;28;19939;-60
2023/07/16 05:58:16;;;;;;;;;;;;;;;;;;5107860;28;19932;-61
2023/07/16 06:00:41;;;;;;;;;;;;;;;;;;5107895;28;19912;-61
2023/07/16 06:03:07;;;;;;;;;;;;;;;;;;5113084;28;19919;-61
2023/07/16 06:05:34;;;;;;;;;;;;;;;;;;5104381;28;19947;-61
2023/07/16 06:08:00;;;;;;;;;;;;;;;;;;5098789;28;19911;-61
2023/07/16 06:10:26;;;;;;;;;;;;;;;;;;5102248;28;20319;-61
2023/07/16 06:12:52;;;;;;;;;;;;;;;;;;5097338;28;19916;-61
2023/07/16 06:15:17;;;;;;;;;;;;;;;;;;5105256;28;19935;-60
2023/07/16 06:17:44;;;;;;;;;;;;;;;;;;5114293;28;19926;-61
2023/07/16 06:20:10;;;;;;;;;;;;;;;;;;5094495;28;19911;-60
2023/07/16 06:22:35;;;;;;;;;;;;;;;;;;5093671;28;19912;-61
2023/07/16 06:25:01;;;;;;;;;;;;;;;;;;5093441;28;20502;-61
2023/07/16 06:27:27;;;;;;;;;;;;;;;;;;5095017;28;19916;-60
2023/07/16 06:29:53;;;;;;;;;;;;;;;;;;5111261;28;19949;-61
2023/07/16 06:32:20;;;;;;;;;;;;;;;;;;5095676;28;20061;-60
2023/07/16 06:34:46;;;;;;;;;;;;;;;;;;5093845;28;19916;-61
2023/07/16 06:37:12;;;;;;;;;;;;;;;;;;5103392;28;19955;-61
2023/07/16 06:39:38;;;;;;;;;;;;;;;;;;5107850;28;19976;-61
2023/07/16 06:42:03;;;;;;;;;;;;;;;;;;5092627;28;19912;-61
2023/07/16 06:44:29;;;;;;;;;;;;;;;;;;5103362;28;20012;-61
2023/07/16 06:46:56;;;;;;;;;;;;;;;;;;5101765;28;19915;-61
2023/07/16 06:49:22;;;;;;;;;;;;;;;;;;5100132;28;19951;-61
2023/07/16 06:51:48;;;;;;;;;;;;;;;;;;5098733;28;19919;-61
2023/07/16 06:54:13;;;;;;;;;;;;;;;;;;5107156;28;20001;-61
2023/07/16 06:56:39;;;;;;;;;;;;;;;;;;5092440;28;19999;-60
2023/07/16 06:59:05;;;;;;;;;;;;;;;;;;5096417;28;20065;-61
2023/07/16 07:01:31;;;;;;;;;;;;;;;;;;5111218;28;19922;-60
2023/07/16 07:03:57;;;;;;;;;;;;;;;;;;5109398;28;19907;-61
2023/07/16 07:06:23;;;;;;;;;;;;;;;;;;5108628;28;20010;-61
2023/07/16 07:08:49;;;;;;;;;;;;;;;;;;5112326;28;19995;-62
2023/07/16 07:11:15;;;;;;;;;;;;;;;;;;5103119;28;20352;-61
2023/07/16 07:13:42;;;;;;;;;;;;;;;;;;5102165;28;20006;-61
2023/07/16 07:16:08;;;;;;;;;;;;;;;;;;5095309;28;20517;-61
2023/07/16 07:18:33;;;;;;;;;;;;;;;;;;5094487;28;19959;-61
2023/07/16 07:20:59;;;;;;;;;;;;;;;;;;5105249;28;19960;-61
2023/07/16 07:23:25;;;;;;;;;;;;;;;;;;5108015;28;20495;-61
2023/07/16 07:25:51;;;;;;;;;;;;;;;;;;5108445;28;20003;-61
2023/07/16 07:28:17;;;;;;;;;;;;;;;;;;5110677;28;20290;-62
2023/07/16 07:30:43;;;;;;;;;;;;;;;;;;5112634;28;19939;-61
2023/07/16 07:33:09;;;;;;;;;;;;;;;;;;5098133;28;19922;-62
2023/07/16 07:35:35;;;;;;;;;;;;;;;;;;5109625;28;19926;-61
2023/07/16 07:38:01;;;;;;;;;;;;;;;;;;5092461;28;19912;-62
2023/07/16 07:40:26;;;;;;;;;;;;;;;;;;5092346;28;20377;-62
2023/07/16 07:42:52;;;;;;;;;;;;;;;;;;5092491;28;19908;-64
2023/07/16 07:45:18;;;;;;;;;;;;;;;;;;5098138;28;19920;-61
2023/07/16 07:47:44;;;;;;;;;;;;;;;;;;5099900;28;20006;-61
2023/07/16 07:50:10;;;;;;;;;;;;;;;;;;5091246;28;19918;-62
2023/07/16 07:52:36;;;;;;;;;;;;;;;;;;5092460;28;19912;-61
2023/07/16 07:55:02;;;;;;;;;;;;;;;;;;5097973;28;20402;-62
2023/07/16 07:57:28;;;;;;;;;;;;;;;;;;5099178;28;19995;-61
2023/07/16 07:59:57;;;;;;;;;;;;;;;;;;5111925;28;19915;-62
2023/07/16 08:02:23;;;;;;;;;;;;;;;;;;5095256;28;19966;-62
2023/07/16 08:04:49;;;;;;;;;;;;;;;;;;5106866;28;19934;-62
2023/07/16 08:07:15;;;;;;;;;;;;;;;;;;5097300;28;19947;-62
2023/07/16 08:09:41;;;;;;;;;;;;;;;;;;5106706;28;19922;-62
2023/07/16 08:12:07;;;;;;;;;;;;;;;;;;5107198;28;20003;-62
2023/07/16 08:14:33;;;;;;;;;;;;;;;;;;5106069;28;19908;-61
2023/07/16 08:16:59;;;;;;;;;;;;;;;;;;5099046;28;19977;-62
2023/07/16 08:19:25;;;;;;;;;;;;;;;;;;5101188;28;19955;-60
2023/07/16 08:21:51;;;;;;;;;;;;;;;;;;5094662;28;19912;-62
2023/07/16 08:24:17;;;;;;;;;;;;;;;;;;5108982;28;20393;-62
2023/07/16 08:26:42;;;;;;;;;;;;;;;;;;5111319;28;19914;-62
2023/07/16 08:29:08;;;;;;;;;;;;;;;;;;5107164;28;19944;-62
2023/07/16 08:31:34;;;;;;;;;;;;;;;;;;5108673;28;19957;-60
2023/07/16 08:34:00;;;;;;;;;;;;;;;;;;5095178;28;19962;-62
2023/07/16 08:36:26;;;;;;;;;;;;;;;;;;5096818;28;19922;-60
2023/07/16 08:38:52;;;;;;;;;;;;;;;;;;5103731;28;19961;-60
2023/07/16 08:41:18;;;;;;;;;;;;;;;;;;5091057;28;19912;-60
2023/07/16 08:43:44;;;;;;;;;;;;;;;;;;5097737;28;20279;-60
2023/07/16 08:46:10;;;;;;;;;;;;;;;;;;5094737;28;19967;-60
2023/07/16 08:48:36;;;;;;;;;;;;;;;;;;5090516;28;19912;-60
2023/07/16 08:51:01;;;;;;;;;;;;;;;;;;5100034;28;19907;-60
2023/07/16 08:53:27;;;;;;;;;;;;;;;;;;5095826;28;19989;-60
2023/07/16 08:55:53;;;;;;;;;;;;;;;;;;5091350;28;19950;-60
2023/07/16 08:58:19;;;;;;;;;;;;;;;;;;5091335;28;19915;-60
2023/07/16 09:00:45;;;;;;;;;;;;;;;;;;5092738;28;19973;-61
2023/07/16 09:03:12;;;;;;;;;;;;;;;;;;5092786;28;20565;-61
2023/07/16 09:05:38;;;;;;;;;;;;;;;;;;5097228;28;19923;-60
2023/07/16 09:08:03;;;;;;;;;;;;;;;;;;5103052;28;19947;-60
2023/07/16 09:10:30;;;;;;;;;;;;;;;;;;5097383;28;20007;-60
2023/07/16 09:12:56;;;;;;;;;;;;;;;;;;5109090;28;20002;-60
2023/07/16 09:15:21;;;;;;;;;;;;;;;;;;5098291;28;20024;-60
2023/07/16 09:17:48;;;;;;;;;;;;;;;;;;5104260;28;20351;-60
2023/07/16 09:20:14;;;;;;;;;;;;;;;;;;5104248;27;19935;-60
2023/07/16 09:22:40;;;;;;;;;;;;;;;;;;5095755;28;19951;-60
2023/07/16 09:25:06;;;;;;;;;;;;;;;;;;5102985;28;19912;-60
2023/07/16 09:27:32;;;;;;;;;;;;;;;;;;5106732;28;20391;-61
2023/07/16 09:30:01;;;;;;;;;;;;;;;;;;5110621;28;19997;-60
2023/07/16 09:32:27;;;;;;;;;;;;;;;;;;5099714;28;20018;-60
2023/07/16 09:34:54;;;;;;;;;;;;;;;;;;5095296;28;20423;-60
2023/07/16 09:37:20;;;;;;;;;;;;;;;;;;5101415;28;20376;-61
2023/07/16 09:39:46;;;;;;;;;;;;;;;;;;5102913;28;19995;-60
2023/07/16 09:42:12;;;;;;;;;;;;;;;;;;5111862;28;19926;-60
2023/07/16 09:44:38;;;;;;;;;;;;;;;;;;5094420;28;19948;-60
2023/07/16 09:47:03;;;;;;;;;;;;;;;;;;5103740;28;19964;-60
2023/07/16 09:49:30;;;;;;;;;;;;;;;;;;5101088;28;19912;-60
2023/07/16 09:51:56;;;;;;;;;;;;;;;;;;5095450;28;20349;-61
2023/07/16 09:54:22;;;;;;;;;;;;;;;;;;5094877;28;20021;-60
2023/07/16 09:56:47;;;;;;;;;;;;;;;;;;5101715;28;19918;-60
2023/07/16 09:59:13;;;;;;;;;;;;;;;;;;5097312;28;19951;-61
2023/07/16 10:01:39;;;;;;;;;;;;;;;;;;5103091;28;19999;-60
2023/07/16 10:04:05;;;;;;;;;;;;;;;;;;5100320;28;19951;-61
2023/07/16 10:06:31;;;;;;;;;;;;;;;;;;5111611;28;19914;-60
2023/07/16 10:08:57;;;;;;;;;;;;;;;;;;5094093;28;19934;-61
2023/07/16 10:11:23;;;;;;;;;;;;;;;;;;5101390;28;19954;-60
2023/07/16 10:13:50;;;;;;;;;;;;;;;;;;5099076;28;20007;-61
2023/07/16 10:16:16;;;;;;;;;;;;;;;;;;5092859;28;19924;-61
2023/07/16 10:18:43;;;;;;;;;;;;;;;;;;5094583;28;19980;-60
2023/07/16 10:21:10;;;;;;;;;;;;;;;;;;5104963;28;20421;-61
2023/07/16 10:23:36;;;;;;;;;;;;;;;;;;5094313;28;19909;-61
2023/07/16 10:26:05;;;;;;;;;;;;;;;;;;5100064;28;19950;-61
2023/07/16 10:28:31;;;;;;;;;;;;;;;;;;5099549;28;20046;-61
2023/07/16 10:30:57;;;;;;;;;;;;;;;;;;5099521;28;20436;-61
2023/07/16 10:33:23;;;;;;;;;;;;;;;;;;5094644;28;19918;-61
2023/07/16 10:35:49;;;;;;;;;;;;;;;;;;5098088;28;20394;-60
2023/07/16 10:38:15;;;;;;;;;;;;;;;;;;5093347;28;19938;-60
2023/07/16 10:40:41;;;;;;;;;;;;;;;;;;5094721;28;20011;-61
2023/07/16 10:43:07;;;;;;;;;;;;;;;;;;5092963;28;20020;-61
2023/07/16 10:45:33;;;;;;;;;;;;;;;;;;5093299;28;20028;-61
2023/07/16 10:47:59;;;;;;;;;;;;;;;;;;5093179;28;19908;-61
2023/07/16 10:50:24;;;;;;;;;;;;;;;;;;5094968;28;20545;-61
2023/07/16 10:52:50;;;;;;;;;;;;;;;;;;5099012;28;19912;-61
2023/07/16 10:55:16;;;;;;;;;;;;;;;;;;5091964;28;19979;-60
2023/07/16 10:57:42;;;;;;;;;;;;;;;;;;5094378;28;20010;-61
2023/07/16 11:00:08;;;;;;;;;;;;;;;;;;5092456;28;19924;-61
2023/07/16 11:02:34;;;;;;;;;;;;;;;;;;5105177;28;19919;-61
2023/07/16 11:05:02;;;;;;;;;;;;;;;;;;5092873;28;19947;-61
2023/07/16 11:07:28;;;;;;;;;;;;;;;;;;5102139;28;20344;-61
2023/07/16 11:09:54;;;;;;;;;;;;;;;;;;5098647;28;20269;-61
2023/07/16 11:12:20;;;;;;;;;;;;;;;;;;5094940;28;19947;-61
2023/07/16 11:14:46;;;;;;;;;;;;;;;;;;5100991;28;19954;-61
2023/07/16 11:17:12;;;;;;;;;;;;;;;;;;5094335;28;19967;-60
2023/07/16 11:19:38;;;;;;;;;;;;;;;;;;5096997;28;20007;-60
2023/07/16 11:22:04;;;;;;;;;;;;;;;;;;5097169;28;19963;-60
2023/07/16 11:24:29;;;;;;;;;;;;;;;;;;5105293;28;20002;-59
2023/07/16 11:26:58;;;;;;;;;;;;;;;;;;5101414;28;19977;-61
2023/07/16 11:29:24;;;;;;;;;;;;;;;;;;5094129;28;20328;-61
2023/07/16 11:31:50;;;;;;;;;;;;;;;;;;5097856;28;19936;-61
2023/07/16 11:34:17;;;;;;;;;;;;;;;;;;5095315;28;19965;-61
2023/07/16 11:36:42;;;;;;;;;;;;;;;;;;5091864;28;20027;-61
2023/07/16 11:39:08;;;;;;;;;;;;;;;;;;5096438;28;19929;-61
2023/07/16 11:41:34;;;;;;;;;;;;;;;;;;5092828;28;19920;-61
2023/07/16 11:44:01;;;;;;;;;;;;;;;;;;5095427;28;20283;-61
2023/07/16 11:46:27;;;;;;;;;;;;;;;;;;5093431;28;19973;-61
2023/07/16 11:48:53;;;;;;;;;;;;;;;;;;5097708;28;19938;-61
2023/07/16 11:51:19;;;;;;;;;;;;;;;;;;5096709;28;19968;-61
2023/07/16 11:53:45;;;;;;;;;;;;;;;;;;5096923;28;20440;-61
2023/07/16 11:56:11;;;;;;;;;;;;;;;;;;5095260;28;20006;-61
2023/07/16 11:58:36;;;;;;;;;;;;;;;;;;5095365;28;19916;-61
2023/07/16 12:01:02;;;;;;;;;;;;;;;;;;5095943;28;19916;-56
2023/07/16 12:03:28;;;;;;;;;;;;;;;;;;5095785;28;19961;-55
2023/07/16 12:05:54;;;;;;;;;;;;;;;;;;5097654;28;20398;-58
2023/07/16 12:08:20;;;;;;;;;;;;;;;;;;5099544;28;20339;-57
2023/07/16 12:10:46;;;;;;;;;;;;;;;;;;5093869;28;19912;-57
2023/07/16 12:13:12;;;;;;;;;;;;;;;;;;5096700;28;20775;-57
2023/07/16 12:15:38;;;;;;;;;;;;;;;;;;5091497;28;19955;-57
2023/07/16 12:18:04;;;;;;;;;;;;;;;;;;5095488;28;20010;-58
2023/07/16 12:20:30;;;;;;;;;;;;;;;;;;5101910;28;20378;-57
2023/07/16 12:22:56;;;;;;;;;;;;;;;;;;5098817;28;19916;-58
2023/07/16 12:25:21;;;;;;;;;;;;;;;;;;5093237;28;19915;-59
2023/07/16 12:27:47;;;;;;;;;;;;;;;;;;5100550;28;19919;-57
2023/07/16 12:30:13;;;;;;;;;;;;;;;;;;5096268;28;20032;-58
2023/07/16 12:32:39;;;;;;;;;;;;;;;;;;5094287;28;19912;-58
2023/07/16 12:35:05;;;;;;;;;;;;;;;;;;5097043;28;19974;-59
2023/07/16 12:37:31;;;;;;;;;;;;;;;;;;5099742;28;19986;-57
2023/07/16 12:39:57;;;;;;;;;;;;;;;;;;5102197;28;20022;-58
2023/07/16 12:42:23;;;;;;;;;;;;;;;;;;5092721;28;19935;-56
2023/07/16 12:44:50;;;;;;;;;;;;;;;;;;5099376;28;20438;-57
2023/07/16 12:47:16;;;;;;;;;;;;;;;;;;5095884;28;19924;-58
2023/07/16 12:49:42;;;;;;;;;;;;;;;;;;5096989;28;19963;-57
2023/07/16 12:52:08;;;;;;;;;;;;;;;;;;5095035;28;19912;-58
2023/07/16 12:54:34;;;;;;;;;;;;;;;;;;5108033;28;20120;-58
2023/07/16 12:57:00;;;;;;;;;;;;;;;;;;5092904;28;20029;-57
2023/07/16 12:59:26;;;;;;;;;;;;;;;;;;5098749;28;19944;-57
2023/07/16 13:01:52;;;;;;;;;;;;;;;;;;5097519;28;19948;-58
2023/07/16 13:04:18;;;;;;;;;;;;;;;;;;5095009;28;19996;-57
2023/07/16 13:06:47;;;;;;;;;;;;;;;;;;5091038;28;19962;-58
2023/07/16 13:09:13;;;;;;;;;;;;;;;;;;5094298;28;19913;-58
2023/07/16 13:11:39;;;;;;;;;;;;;;;;;;5096556;28;19958;-57
2023/07/16 13:14:04;;;;;;;;;;;;;;;;;;5090787;28;19955;-58
2023/07/16 13:16:30;;;;;;;;;;;;;;;;;;5099068;28;20320;-58
2023/07/16 13:18:58;;;;;;;;;;;;;;;;;;5090174;28;19920;-59
2023/07/16 13:21:24;;;;;;;;;;;;;;;;;;5102302;28;19969;-57
2023/07/16 13:23:50;;;;;;;;;;;;;;;;;;5095380;28;19916;-58
2023/07/16 13:26:16;;;;;;;;;;;;;;;;;;5090673;28;20268;-58
2023/07/16 13:28:41;;;;;;;;;;;;;;;;;;5093627;28;19920;-58
2023/07/16 13:31:07;;;;;;;;;;;;;;;;;;5095452;28;19934;-57
2023/07/16 13:33:34;;;;;;;;;;;;;;;;;;5099593;28;19951;-56
2023/07/16 13:36:03;;;;;;;;;;;;;;;;;;5101753;28;19923;-57
2023/07/16 13:38:30;;;;;;;;;;;;;;;;;;5091083;28;20325;-58
2023/07/16 13:40:56;;;;;;;;;;;;;;;;;;5095819;28;19962;-56
2023/07/16 13:43:22;;;;;;;;;;;;;;;;;;5094863;28;19912;-56
2023/07/16 13:45:47;;;;;;;;;;;;;;;;;;5097118;28;20379;-57
2023/07/16 13:48:13;;;;;;;;;;;;;;;;;;5091491;28;19999;-55
2023/07/16 13:50:39;;;;;;;;;;;;;;;;;;5094990;28;20318;-57
2023/07/16 13:53:06;;;;;;;;;;;;;;;;;;5103275;28;19915;-57
2023/07/16 13:55:31;;;;;;;;;;;;;;;;;;5097069;28;19916;-57
2023/07/16 13:57:57;;;;;;;;;;;;;;;;;;5095754;28;20354;-58
2023/07/16 14:00:23;;;;;;;;;;;;;;;;;;5101225;28;19986;-58
2023/07/16 14:02:49;;;;;;;;;;;;;;;;;;5107032;28;20345;-58
2023/07/16 14:05:15;;;;;;;;;;;;;;;;;;5108694;28;19954;-57
2023/07/16 14:07:41;;;;;;;;;;;;;;;;;;5102107;28;19916;-57
2023/07/16 14:10:07;;;;;;;;;;;;;;;;;;5103796;28;20009;-58
2023/07/16 14:12:34;;;;;;;;;;;;;;;;;;5098835;28;19912;-58
2023/07/16 14:15:00;;;;;;;;;;;;;;;;;;5100511;28;20552;-58
2023/07/16 14:17:26;;;;;;;;;;;;;;;;;;5104367;28;19970;-57
2023/07/16 14:19:52;;;;;;;;;;;;;;;;;;5102314;28;19920;-58
2023/07/16 14:22:18;;;;;;;;;;;;;;;;;;5101484;28;19952;-57
2023/07/16 14:24:44;;;;;;;;;;;;;;;;;;5097660;28;19912;-59
2023/07/16 14:27:12;;;;;;;;;;;;;;;;;;5094371;28;19956;-57
2023/07/16 14:29:38;;;;;;;;;;;;;;;;;;5100065;28;20026;-57
2023/07/16 14:32:04;;;;;;;;;;;;;;;;;;5098639;28;19989;-57
2023/07/16 14:34:30;;;;;;;;;;;;;;;;;;5103640;28;19951;-57
2023/07/16 14:36:56;;;;;;;;;;;;;;;;;;5101611;28;20458;-57
2023/07/16 14:39:22;;;;;;;;;;;;;;;;;;5102126;28;19923;-59
2023/07/16 14:41:48;;;;;;;;;;;;;;;;;;5098572;28;21329;-58
2023/07/16 14:44:14;;;;;;;;;;;;;;;;;;5096331;28;20043;-58
2023/07/16 14:46:40;;;;;;;;;;;;;;;;;;5100517;28;19918;-59
2023/07/16 14:49:06;;;;;;;;;;;;;;;;;;5094320;28;20018;-59
2023/07/16 14:51:39;;;;;;;;;;;;;;;;;;5094857;28;19912;-57
2023/07/16 14:54:05;;;;;;;;;;;;;;;;;;5100345;28;19948;-58
2023/07/16 14:56:31;;;;;;;;;;;;;;;;;;5092849;28;19924;-57
2023/07/16 14:58:57;;;;;;;;;;;;;;;;;;5099053;28;19955;-57
2023/07/16 15:01:23;;;;;;;;;;;;;;;;;;5101630;28;19957;-57
2023/07/16 15:03:49;;;;;;;;;;;;;;;;;;5091464;28;20030;-58
2023/07/16 15:06:14;;;;;;;;;;;;;;;;;;5094794;28;19948;-58
2023/07/16 15:08:40;;;;;;;;;;;;;;;;;;5110447;28;19911;-57
2023/07/16 15:11:06;;;;;;;;;;;;;;;;;;5092151;28;20391;-57
2023/07/16 15:13:32;;;;;;;;;;;;;;;;;;5092058;28;19926;-58
2023/07/16 15:15:58;;;;;;;;;;;;;;;;;;5093167;28;20045;-58
2023/07/16 15:18:25;;;;;;;;;;;;;;;;;;5101103;28;19919;-57
2023/07/16 15:20:51;;;;;;;;;;;;;;;;;;5104258;28;19927;-58
2023/07/16 15:23:17;;;;;;;;;;;;;;;;;;5092825;28;19939;-58
2023/07/16 15:25:43;;;;;;;;;;;;;;;;;;5092582;28;20383;-58
2023/07/16 15:28:08;;;;;;;;;;;;;;;;;;5092851;28;20053;-57
2023/07/16 15:30:34;;;;;;;;;;;;;;;;;;5091665;28;20007;-57
2023/07/16 15:33:00;;;;;;;;;;;;;;;;;;5113029;28;19915;-57
2023/07/16 15:35:26;;;;;;;;;;;;;;;;;;5102142;28;19920;-58
2023/07/16 15:37:52;;;;;;;;;;;;;;;;;;5103425;28;20261;-57
2023/07/16 15:40:18;;;;;;;;;;;;;;;;;;5106521;28;19914;-57
2023/07/16 15:42:44;;;;;;;;;;;;;;;;;;5105401;28;19908;-57
2023/07/16 15:45:12;;;;;;;;;;;;;;;;;;5103542;28;19908;-57
2023/07/16 15:47:38;;;;;;;;;;;;;;;;;;5109299;28;19915;-57
2023/07/16 15:50:04;;;;;;;;;;;;;;;;;;5108819;28;19915;-57
2023/07/16 15:52:30;;;;;;;;;;;;;;;;;;5109310;28;20263;-57
2023/07/16 15:54:56;;;;;;;;;;;;;;;;;;5096029;28;19954;-57
2023/07/16 15:57:22;;;;;;;;;;;;;;;;;;5112161;28;19908;-57
2023/07/16 15:59:48;;;;;;;;;;;;;;;;;;5112174;28;19912;-57
2023/07/16 16:02:14;;;;;;;;;;;;;;;;;;5112519;28;19934;-57
2023/07/16 16:04:39;;;;;;;;;;;;;;;;;;5103133;28;20313;-57
2023/07/16 16:07:05;;;;;;;;;;;;;;;;;;5107490;28;19966;-57
2023/07/16 16:09:31;;;;;;;;;;;;;;;;;;5106592;28;19959;-58
2023/07/16 16:11:58;;;;;;;;;;;;;;;;;;5110856;28;20493;-57
2023/07/16 16:14:24;;;;;;;;;;;;;;;;;;5111504;28;19908;-57
2023/07/16 16:16:50;;;;;;;;;;;;;;;;;;5093358;28;19912;-57
2023/07/16 16:19:16;;;;;;;;;;;;;;;;;;5091876;28;19974;-57
2023/07/16 16:21:42;;;;;;;;;;;;;;;;;;5091262;28;20341;-58
2023/07/16 16:24:08;;;;;;;;;;;;;;;;;;5091628;28;19912;-57
2023/07/16 16:26:34;;;;;;;;;;;;;;;;;;5090206;28;19912;-57
2023/07/16 16:29:00;;;;;;;;;;;;;;;;;;5095539;28;21702;-57
2023/07/16 16:31:26;;;;;;;;;;;;;;;;;;5094921;28;19970;-58
2023/07/16 16:33:52;;;;;;;;;;;;;;;;;;5108832;28;20054;-58
2023/07/16 16:36:17;;;;;;;;;;;;;;;;;;5093259;28;19960;-57